sensor_id;sensor_type;location;lat;lon;timestamp;temperature;humidity
18141;DHT22;9196;49.194;12.526;2023-05-10T00:01:52;13.10;99.90
18141;DHT22;9196;49.194;12.526;2023-05-10T00:04:18;13.10;99.90
18141;DHT22;9196;49.194;12.526;2023-05-10T00:06:46;13.20;99.90
18141;DHT22;9196;49.194;12.526;2023-05-10T00:09:13;13.20;99.90
18141;DHT22;9196;49.194;12.526;2023-05-10T00:11:40;13.20;99.90
18141;DHT22;9196;49.194;12.526;2023-05-10T00:14:07;13.20;99.90
18141;DHT22;9196;49.194;12.526;2023-05-10T00:16:34;13.30;99.90
18141;DHT22;9196;49.194;12.526;2023-05-10T00:19:01;13.10;99.90
18141;DHT22;9196;49.194;12.526;2023-05-10T00:21:28;13.10;99.90
18141;DHT22;9196;49.194;12.526;2023-05-10T00:23:56;13.10;99.90
18141;DHT22;9196;49.194;12.526;2023-05-10T00:26:23;13.10;99.90
18141;DHT22;9196;49.194;12.526;2023-05-10T00:28:49;13.10;99.90
18141;DHT22;9196;49.194;12.526;2023-05-10T00:31:16;13.10;99.90
18141;DHT22;9196;49.194;12.526;2023-05-10T00:33:43;13.10;99.90
18141;DHT22;9196;49.194;12.526;2023-05-10T00:36:10;13.20;99.90
18141;DHT22;9196;49.194;12.526;2023-05-10T00:38:37;13.20;99.90
18141;DHT22;9196;49.194;12.526;2023-05-10T00:41:06;13.20;99.90
18141;DHT22;9196;49.194;12.526;2023-05-10T00:43:32;13.20;99.90
18141;DHT22;9196;49.194;12.526;2023-05-10T00:45:59;13.10;99.90
18141;DHT22;9196;49.194;12.526;2023-05-10T00:48:26;13.10;99.90
18141;DHT22;9196;49.194;12.526;2023-05-10T00:50:53;13.10;99.90
18141;DHT22;9196;49.194;12.526;2023-05-10T00:53:20;13.10;99.90
18141;DHT22;9196;49.194;12.526;2023-05-10T00:55:46;13.00;99.90
18141;DHT22;9196;49.194;12.526;2023-05-10T00:58:15;13.00;99.90
18141;DHT22;9196;49.194;12.526;2023-05-10T01:00:42;13.00;99.90
18141;DHT22;9196;49.194;12.526;2023-05-10T01:03:10;13.10;99.90
18141;DHT22;9196;49.194;12.526;2023-05-10T01:05:37;13.00;99.90
18141;DHT22;9196;49.194;12.526;2023-05-10T01:08:04;13.00;99.90
18141;DHT22;9196;49.194;12.526;2023-05-10T01:10:31;13.00;99.90
18141;DHT22;9196;49.194;12.526;2023-05-10T01:12:59;13.00;99.90
18141;DHT22;9196;49.194;12.526;2023-05-10T01:15:27;13.00;99.90
18141;DHT22;9196;49.194;12.526;2023-05-10T01:17:54;13.00;99.90
18141;DHT22;9196;49.194;12.526;2023-05-10T01:20:22;13.00;99.90
18141;DHT22;9196;49.194;12.526;2023-05-10T01:29:18;13.00;99.90
18141;DHT22;9196;49.194;12.526;2023-05-10T01:32:21;13.00;99.90
18141;DHT22;9196;49.194;12.526;2023-05-10T01:34:56;13.00;99.90
18141;DHT22;9196;49.194;12.526;2023-05-10T01:37:33;12.90;99.90
18141;DHT22;9196;49.194;12.526;2023-05-10T01:40:10;13.00;99.90
18141;DHT22;9196;49.194;12.526;2023-05-10T01:42:45;12.90;99.90
18141;DHT22;9196;49.194;12.526;2023-05-10T01:45:19;12.90;99.90
18141;DHT22;9196;49.194;12.526;2023-05-10T01:47:51;12.90;99.90
18141;DHT22;9196;49.194;12.526;2023-05-10T01:50:24;12.90;99.90
18141;DHT22;9196;49.194;12.526;2023-05-10T01:52:56;12.90;99.90
18141;DHT22;9196;49.194;12.526;2023-05-10T01:55:25;12.90;99.90
18141;DHT22;9196;49.194;12.526;2023-05-10T01:57:58;12.90;99.90
18141;DHT22;9196;49.194;12.526;2023-05-10T02:00:27;13.00;99.90
18141;DHT22;9196;49.194;12.526;2023-05-10T02:02:57;13.00;99.90
18141;DHT22;9196;49.194;12.526;2023-05-10T02:05:24;13.00;99.90
18141;DHT22;9196;49.194;12.526;2023-05-10T02:07:51;12.90;99.90
18141;DHT22;9196;49.194;12.526;2023-05-10T02:10:19;12.90;99.90
18141;DHT22;9196;49.194;12.526;2023-05-10T02:12:48;12.80;99.90
18141;DHT22;9196;49.194;12.526;2023-05-10T02:15:20;12.80;99.90
18141;DHT22;9196;49.194;12.526;2023-05-10T02:17:47;12.80;99.90
18141;DHT22;9196;49.194;12.526;2023-05-10T02:20:17;12.90;99.90
18141;DHT22;9196;49.194;12.526;2023-05-10T02:22:48;12.90;99.90
18141;DHT22;9196;49.194;12.526;2023-05-10T02:25:16;12.90;99.90
18141;DHT22;9196;49.194;12.526;2023-05-10T02:27:44;12.80;99.90
18141;DHT22;9196;49.194;12.526;2023-05-10T02:30:14;12.80;99.90
18141;DHT22;9196;49.194;12.526;2023-05-10T02:32:41;12.80;99.90
18141;DHT22;9196;49.194;12.526;2023-05-10T02:35:09;12.70;99.90
18141;DHT22;9196;49.194;12.526;2023-05-10T02:37:38;12.80;99.90
18141;DHT22;9196;49.194;12.526;2023-05-10T02:40:07;12.80;99.90
18141;DHT22;9196;49.194;12.526;2023-05-10T02:42:36;12.80;99.90
18141;DHT22;9196;49.194;12.526;2023-05-10T02:45:08;12.80;99.90
18141;DHT22;9196;49.194;12.526;2023-05-10T02:47:37;12.80;99.90
18141;DHT22;9196;49.194;12.526;2023-05-10T02:50:04;12.80;99.90
18141;DHT22;9196;49.194;12.526;2023-05-10T02:52:40;12.90;99.90
18141;DHT22;9196;49.194;12.526;2023-05-10T02:55:11;12.90;99.90
18141;DHT22;9196;49.194;12.526;2023-05-10T02:57:42;12.90;99.90
18141;DHT22;9196;49.194;12.526;2023-05-10T03:00:10;13.00;99.90
18141;DHT22;9196;49.194;12.526;2023-05-10T03:02:37;13.00;99.90
18141;DHT22;9196;49.194;12.526;2023-05-10T03:05:04;13.00;99.90
18141;DHT22;9196;49.194;12.526;2023-05-10T03:07:32;12.90;99.90
18141;DHT22;9196;49.194;12.526;2023-05-10T03:10:00;12.90;99.90
18141;DHT22;9196;49.194;12.526;2023-05-10T03:12:33;12.90;99.90
18141;DHT22;9196;49.194;12.526;2023-05-10T03:15:08;12.80;99.90
18141;DHT22;9196;49.194;12.526;2023-05-10T03:17:46;12.80;99.90
18141;DHT22;9196;49.194;12.526;2023-05-10T03:20:21;12.80;99.90
18141;DHT22;9196;49.194;12.526;2023-05-10T03:22:51;12.80;99.90
18141;DHT22;9196;49.194;12.526;2023-05-10T03:25:21;12.80;99.90
18141;DHT22;9196;49.194;12.526;2023-05-10T03:27:48;12.80;99.90
18141;DHT22;9196;49.194;12.526;2023-05-10T03:30:16;12.70;99.90
18141;DHT22;9196;49.194;12.526;2023-05-10T03:32:43;12.60;99.90
18141;DHT22;9196;49.194;12.526;2023-05-10T03:35:10;12.60;99.90
18141;DHT22;9196;49.194;12.526;2023-05-10T03:37:37;12.60;99.90
18141;DHT22;9196;49.194;12.526;2023-05-10T03:40:05;12.50;99.90
18141;DHT22;9196;49.194;12.526;2023-05-10T03:42:34;12.50;99.90
18141;DHT22;9196;49.194;12.526;2023-05-10T03:45:01;12.50;99.90
18141;DHT22;9196;49.194;12.526;2023-05-10T03:47:28;12.50;99.90
18141;DHT22;9196;49.194;12.526;2023-05-10T03:49:55;12.50;99.90
18141;DHT22;9196;49.194;12.526;2023-05-10T03:52:22;12.50;99.90
18141;DHT22;9196;49.194;12.526;2023-05-10T03:54:48;12.50;99.90
18141;DHT22;9196;49.194;12.526;2023-05-10T03:57:15;12.50;99.90
18141;DHT22;9196;49.194;12.526;2023-05-10T03:59:43;12.30;99.90
18141;DHT22;9196;49.194;12.526;2023-05-10T04:02:10;12.30;99.90
18141;DHT22;9196;49.194;12.526;2023-05-10T04:04:37;12.30;99.90
18141;DHT22;9196;49.194;12.526;2023-05-10T04:07:04;12.30;99.90
18141;DHT22;9196;49.194;12.526;2023-05-10T04:09:31;12.30;99.90
18141;DHT22;9196;49.194;12.526;2023-05-10T04:11:58;12.20;99.90
18141;DHT22;9196;49.194;12.526;2023-05-10T04:14:25;12.20;99.90
18141;DHT22;9196;49.194;12.526;2023-05-10T04:16:53;12.20;99.90
18141;DHT22;9196;49.194;12.526;2023-05-10T04:19:20;12.00;99.90
18141;DHT22;9196;49.194;12.526;2023-05-10T04:21:47;12.00;99.90
18141;DHT22;9196;49.194;12.526;2023-05-10T04:24:14;12.00;99.90
18141;DHT22;9196;49.194;12.526;2023-05-10T04:26:41;12.00;99.90
18141;DHT22;9196;49.194;12.526;2023-05-10T04:29:08;12.10;99.90
18141;DHT22;9196;49.194;12.526;2023-05-10T04:31:34;12.10;99.90
18141;DHT22;9196;49.194;12.526;2023-05-10T04:34:03;12.00;99.90
18141;DHT22;9196;49.194;12.526;2023-05-10T04:36:30;12.00;99.90
18141;DHT22;9196;49.194;12.526;2023-05-10T04:38:57;12.10;99.90
18141;DHT22;9196;49.194;12.526;2023-05-10T04:41:24;12.10;99.90
18141;DHT22;9196;49.194;12.526;2023-05-10T04:43:51;12.20;99.90
18141;DHT22;9196;49.194;12.526;2023-05-10T04:46:18;12.30;99.90
18141;DHT22;9196;49.194;12.526;2023-05-10T04:48:45;12.50;99.90
18141;DHT22;9196;49.194;12.526;2023-05-10T04:51:13;12.50;99.90
18141;DHT22;9196;49.194;12.526;2023-05-10T04:53:40;12.50;99.90
18141;DHT22;9196;49.194;12.526;2023-05-10T04:56:07;12.40;99.90
18141;DHT22;9196;49.194;12.526;2023-05-10T04:58:34;12.30;99.90
18141;DHT22;9196;49.194;12.526;2023-05-10T05:01:05;12.40;99.90
18141;DHT22;9196;49.194;12.526;2023-05-10T05:03:33;12.50;99.90
18141;DHT22;9196;49.194;12.526;2023-05-10T05:05:59;12.50;99.90
18141;DHT22;9196;49.194;12.526;2023-05-10T05:08:28;12.60;99.90
18141;DHT22;9196;49.194;12.526;2023-05-10T05:10:55;12.60;99.90
18141;DHT22;9196;49.194;12.526;2023-05-10T05:13:21;12.60;99.90
18141;DHT22;9196;49.194;12.526;2023-05-10T05:15:48;12.60;99.90
18141;DHT22;9196;49.194;12.526;2023-05-10T05:18:15;12.70;99.90
18141;DHT22;9196;49.194;12.526;2023-05-10T05:20:42;12.70;99.90
18141;DHT22;9196;49.194;12.526;2023-05-10T05:23:08;12.70;99.90
18141;DHT22;9196;49.194;12.526;2023-05-10T05:25:37;12.80;99.90
18141;DHT22;9196;49.194;12.526;2023-05-10T05:28:04;12.70;99.90
18141;DHT22;9196;49.194;12.526;2023-05-10T05:30:31;12.60;99.90
18141;DHT22;9196;49.194;12.526;2023-05-10T05:32:57;12.60;99.90
18141;DHT22;9196;49.194;12.526;2023-05-10T05:35:24;12.80;99.90
18141;DHT22;9196;49.194;12.526;2023-05-10T05:37:51;12.90;99.90
18141;DHT22;9196;49.194;12.526;2023-05-10T05:40:18;12.90;99.90
18141;DHT22;9196;49.194;12.526;2023-05-10T05:42:47;13.00;99.90
18141;DHT22;9196;49.194;12.526;2023-05-10T05:45:13;13.10;99.90
18141;DHT22;9196;49.194;12.526;2023-05-10T05:47:40;13.20;99.90
18141;DHT22;9196;49.194;12.526;2023-05-10T05:50:08;13.20;99.90
18141;DHT22;9196;49.194;12.526;2023-05-10T05:52:35;13.30;99.90
18141;DHT22;9196;49.194;12.526;2023-05-10T05:55:02;13.30;99.90
18141;DHT22;9196;49.194;12.526;2023-05-10T05:57:29;13.40;99.90
18141;DHT22;9196;49.194;12.526;2023-05-10T05:59:57;13.40;99.90
18141;DHT22;9196;49.194;12.526;2023-05-10T06:02:25;13.30;99.90
18141;DHT22;9196;49.194;12.526;2023-05-10T06:04:51;13.40;99.90
18141;DHT22;9196;49.194;12.526;2023-05-10T06:07:18;13.30;99.90
18141;DHT22;9196;49.194;12.526;2023-05-10T06:09:45;13.20;99.90
18141;DHT22;9196;49.194;12.526;2023-05-10T06:12:12;13.20;99.90
18141;DHT22;9196;49.194;12.526;2023-05-10T06:14:39;13.20;99.90
18141;DHT22;9196;49.194;12.526;2023-05-10T06:17:07;13.20;99.90
18141;DHT22;9196;49.194;12.526;2023-05-10T06:19:34;13.20;99.90
18141;DHT22;9196;49.194;12.526;2023-05-10T06:22:02;13.20;99.90
18141;DHT22;9196;49.194;12.526;2023-05-10T06:24:28;13.20;99.90
18141;DHT22;9196;49.194;12.526;2023-05-10T06:26:55;13.20;99.90
18141;DHT22;9196;49.194;12.526;2023-05-10T06:29:25;13.20;99.90
18141;DHT22;9196;49.194;12.526;2023-05-10T06:31:52;13.10;99.90
18141;DHT22;9196;49.194;12.526;2023-05-10T06:34:20;13.10;99.90
18141;DHT22;9196;49.194;12.526;2023-05-10T06:36:47;13.00;99.90
18141;DHT22;9196;49.194;12.526;2023-05-10T06:39:14;13.10;99.90
18141;DHT22;9196;49.194;12.526;2023-05-10T06:41:41;13.10;99.90
18141;DHT22;9196;49.194;12.526;2023-05-10T06:44:08;13.10;99.90
18141;DHT22;9196;49.194;12.526;2023-05-10T06:46:35;13.10;99.90
18141;DHT22;9196;49.194;12.526;2023-05-10T06:49:02;13.10;99.90
18141;DHT22;9196;49.194;12.526;2023-05-10T06:51:30;13.20;99.90
18141;DHT22;9196;49.194;12.526;2023-05-10T06:53:58;13.30;99.90
18141;DHT22;9196;49.194;12.526;2023-05-10T06:56:24;13.40;99.90
18141;DHT22;9196;49.194;12.526;2023-05-10T06:58:51;13.40;99.90
18141;DHT22;9196;49.194;12.526;2023-05-10T07:01:18;13.40;99.90
18141;DHT22;9196;49.194;12.526;2023-05-10T07:03:45;13.40;99.90
18141;DHT22;9196;49.194;12.526;2023-05-10T07:06:12;13.30;99.90
18141;DHT22;9196;49.194;12.526;2023-05-10T07:08:40;13.30;99.90
18141;DHT22;9196;49.194;12.526;2023-05-10T07:11:07;13.40;99.90
18141;DHT22;9196;49.194;12.526;2023-05-10T07:13:34;13.40;99.90
18141;DHT22;9196;49.194;12.526;2023-05-10T07:16:01;13.40;99.90
18141;DHT22;9196;49.194;12.526;2023-05-10T07:18:28;13.50;99.90
18141;DHT22;9196;49.194;12.526;2023-05-10T07:20:56;13.60;99.90
18141;DHT22;9196;49.194;12.526;2023-05-10T07:23:23;13.70;99.90
18141;DHT22;9196;49.194;12.526;2023-05-10T07:25:51;13.70;99.90
18141;DHT22;9196;49.194;12.526;2023-05-10T07:28:19;13.60;99.90
18141;DHT22;9196;49.194;12.526;2023-05-10T07:30:46;13.70;99.90
18141;DHT22;9196;49.194;12.526;2023-05-10T07:33:13;13.60;99.90
18141;DHT22;9196;49.194;12.526;2023-05-10T07:35:41;13.40;99.90
18141;DHT22;9196;49.194;12.526;2023-05-10T07:38:07;13.40;99.90
18141;DHT22;9196;49.194;12.526;2023-05-10T07:40:36;13.50;99.90
18141;DHT22;9196;49.194;12.526;2023-05-10T07:43:05;13.40;99.90
18141;DHT22;9196;49.194;12.526;2023-05-10T07:45:32;13.40;99.90
18141;DHT22;9196;49.194;12.526;2023-05-10T07:47:59;13.30;99.90
18141;DHT22;9196;49.194;12.526;2023-05-10T07:50:26;13.30;99.90
18141;DHT22;9196;49.194;12.526;2023-05-10T07:52:53;13.20;99.90
18141;DHT22;9196;49.194;12.526;2023-05-10T07:55:20;13.20;99.90
18141;DHT22;9196;49.194;12.526;2023-05-10T07:57:47;13.20;99.90
18141;DHT22;9196;49.194;12.526;2023-05-10T08:00:17;13.00;99.90
18141;DHT22;9196;49.194;12.526;2023-05-10T08:02:44;13.00;99.90
18141;DHT22;9196;49.194;12.526;2023-05-10T08:05:11;13.10;99.90
18141;DHT22;9196;49.194;12.526;2023-05-10T08:07:38;13.20;99.90
18141;DHT22;9196;49.194;12.526;2023-05-10T08:10:07;13.20;99.90
18141;DHT22;9196;49.194;12.526;2023-05-10T08:12:34;13.20;99.90
18141;DHT22;9196;49.194;12.526;2023-05-10T08:15:00;13.10;99.90
18141;DHT22;9196;49.194;12.526;2023-05-10T08:17:28;13.10;99.90
18141;DHT22;9196;49.194;12.526;2023-05-10T08:19:55;13.10;99.90
18141;DHT22;9196;49.194;12.526;2023-05-10T08:22:22;13.10;99.90
18141;DHT22;9196;49.194;12.526;2023-05-10T08:24:49;13.30;99.90
18141;DHT22;9196;49.194;12.526;2023-05-10T08:27:15;13.30;99.90
18141;DHT22;9196;49.194;12.526;2023-05-10T08:29:42;13.40;99.90
18141;DHT22;9196;49.194;12.526;2023-05-10T08:32:09;13.40;99.90
18141;DHT22;9196;49.194;12.526;2023-05-10T08:34:37;13.30;99.90
18141;DHT22;9196;49.194;12.526;2023-05-10T08:37:04;13.30;99.90
18141;DHT22;9196;49.194;12.526;2023-05-10T08:39:34;13.30;99.90
18141;DHT22;9196;49.194;12.526;2023-05-10T08:42:03;13.40;99.90
18141;DHT22;9196;49.194;12.526;2023-05-10T08:44:32;13.60;99.90
18141;DHT22;9196;49.194;12.526;2023-05-10T08:47:04;13.50;99.90
18141;DHT22;9196;49.194;12.526;2023-05-10T08:49:31;13.60;99.90
18141;DHT22;9196;49.194;12.526;2023-05-10T08:52:02;13.60;99.90
18141;DHT22;9196;49.194;12.526;2023-05-10T08:54:31;13.70;99.90
18141;DHT22;9196;49.194;12.526;2023-05-10T08:56:58;13.80;99.90
18141;DHT22;9196;49.194;12.526;2023-05-10T08:59:25;14.00;99.90
18141;DHT22;9196;49.194;12.526;2023-05-10T09:01:52;14.10;99.90
18141;DHT22;9196;49.194;12.526;2023-05-10T09:04:21;14.20;99.90
18141;DHT22;9196;49.194;12.526;2023-05-10T09:06:48;14.40;99.90
18141;DHT22;9196;49.194;12.526;2023-05-10T09:09:16;14.50;99.90
18141;DHT22;9196;49.194;12.526;2023-05-10T09:11:43;14.60;99.90
18141;DHT22;9196;49.194;12.526;2023-05-10T09:14:11;14.60;99.90
18141;DHT22;9196;49.194;12.526;2023-05-10T09:16:39;14.70;99.90
18141;DHT22;9196;49.194;12.526;2023-05-10T09:19:06;14.80;99.90
18141;DHT22;9196;49.194;12.526;2023-05-10T09:21:35;14.70;99.90
18141;DHT22;9196;49.194;12.526;2023-05-10T09:24:04;14.70;99.90
18141;DHT22;9196;49.194;12.526;2023-05-10T09:26:32;14.80;99.90
18141;DHT22;9196;49.194;12.526;2023-05-10T09:29:01;14.80;99.90
18141;DHT22;9196;49.194;12.526;2023-05-10T09:31:45;14.80;99.90
18141;DHT22;9196;49.194;12.526;2023-05-10T09:34:16;14.60;99.90
18141;DHT22;9196;49.194;12.526;2023-05-10T09:36:53;14.70;99.90
18141;DHT22;9196;49.194;12.526;2023-05-10T09:39:20;14.70;99.90
18141;DHT22;9196;49.194;12.526;2023-05-10T09:41:49;14.70;99.90
18141;DHT22;9196;49.194;12.526;2023-05-10T09:44:17;14.80;99.90
18141;DHT22;9196;49.194;12.526;2023-05-10T09:46:49;14.60;99.90
18141;DHT22;9196;49.194;12.526;2023-05-10T09:49:17;14.70;99.90
18141;DHT22;9196;49.194;12.526;2023-05-10T09:51:43;14.60;99.90
18141;DHT22;9196;49.194;12.526;2023-05-10T09:54:12;14.60;99.90
18141;DHT22;9196;49.194;12.526;2023-05-10T09:56:39;14.70;99.90
18141;DHT22;9196;49.194;12.526;2023-05-10T09:59:11;14.60;99.90
18141;DHT22;9196;49.194;12.526;2023-05-10T10:01:38;14.60;99.90
18141;DHT22;9196;49.194;12.526;2023-05-10T10:04:07;14.50;99.90
18141;DHT22;9196;49.194;12.526;2023-05-10T10:06:37;14.50;99.90
18141;DHT22;9196;49.194;12.526;2023-05-10T10:09:05;14.40;99.90
18141;DHT22;9196;49.194;12.526;2023-05-10T10:11:34;14.50;99.90
18141;DHT22;9196;49.194;12.526;2023-05-10T10:14:01;14.60;99.90
18141;DHT22;9196;49.194;12.526;2023-05-10T10:16:30;14.60;99.90
18141;DHT22;9196;49.194;12.526;2023-05-10T10:18:57;14.60;99.90
18141;DHT22;9196;49.194;12.526;2023-05-10T10:21:24;14.60;99.90
18141;DHT22;9196;49.194;12.526;2023-05-10T10:23:52;14.70;99.90
18141;DHT22;9196;49.194;12.526;2023-05-10T10:26:20;14.70;99.90
18141;DHT22;9196;49.194;12.526;2023-05-10T10:28:51;14.80;99.90
18141;DHT22;9196;49.194;12.526;2023-05-10T10:31:27;14.80;99.90
18141;DHT22;9196;49.194;12.526;2023-05-10T10:34:05;14.80;99.90
18141;DHT22;9196;49.194;12.526;2023-05-10T10:36:39;14.80;99.90
18141;DHT22;9196;49.194;12.526;2023-05-10T10:39:09;14.90;99.90
18141;DHT22;9196;49.194;12.526;2023-05-10T10:41:37;15.00;99.90
18141;DHT22;9196;49.194;12.526;2023-05-10T10:44:35;14.90;99.90
18141;DHT22;9196;49.194;12.526;2023-05-10T10:47:05;15.00;99.90
18141;DHT22;9196;49.194;12.526;2023-05-10T10:49:38;15.10;99.90
18141;DHT22;9196;49.194;12.526;2023-05-10T10:52:33;15.10;99.90
18141;DHT22;9196;49.194;12.526;2023-05-10T10:55:02;15.20;99.90
18141;DHT22;9196;49.194;12.526;2023-05-10T10:57:32;15.30;99.90
18141;DHT22;9196;49.194;12.526;2023-05-10T11:00:17;15.40;99.90
18141;DHT22;9196;49.194;12.526;2023-05-10T11:02:45;15.40;99.90
18141;DHT22;9196;49.194;12.526;2023-05-10T11:05:42;15.30;99.90
18141;DHT22;9196;49.194;12.526;2023-05-10T11:08:17;15.30;99.90
18141;DHT22;9196;49.194;12.526;2023-05-10T11:11:06;15.30;99.90
18141;DHT22;9196;49.194;12.526;2023-05-10T11:13:36;15.40;99.90
18141;DHT22;9196;49.194;12.526;2023-05-10T11:16:15;15.40;99.90
18141;DHT22;9196;49.194;12.526;2023-05-10T11:18:57;15.50;99.90
18141;DHT22;9196;49.194;12.526;2023-05-10T11:21:26;15.60;99.90
18141;DHT22;9196;49.194;12.526;2023-05-10T11:23:54;15.80;99.90
18141;DHT22;9196;49.194;12.526;2023-05-10T11:26:23;15.80;99.90
18141;DHT22;9196;49.194;12.526;2023-05-10T11:28:52;15.70;99.90
18141;DHT22;9196;49.194;12.526;2023-05-10T11:31:20;15.80;99.90
18141;DHT22;9196;49.194;12.526;2023-05-10T11:33:48;15.80;99.90
18141;DHT22;9196;49.194;12.526;2023-05-10T11:36:17;15.70;99.90
18141;DHT22;9196;49.194;12.526;2023-05-10T11:38:45;15.70;99.90
18141;DHT22;9196;49.194;12.526;2023-05-10T11:41:13;15.70;99.90
18141;DHT22;9196;49.194;12.526;2023-05-10T11:43:40;15.70;99.90
18141;DHT22;9196;49.194;12.526;2023-05-10T11:46:08;15.70;99.90
18141;DHT22;9196;49.194;12.526;2023-05-10T11:48:36;15.70;99.90
18141;DHT22;9196;49.194;12.526;2023-05-10T11:51:03;15.90;99.90
18141;DHT22;9196;49.194;12.526;2023-05-10T11:53:31;15.90;99.90
18141;DHT22;9196;49.194;12.526;2023-05-10T11:56:05;15.90;99.90
18141;DHT22;9196;49.194;12.526;2023-05-10T11:58:32;15.90;99.90
18141;DHT22;9196;49.194;12.526;2023-05-10T12:00:59;15.90;99.90
18141;DHT22;9196;49.194;12.526;2023-05-10T12:03:27;15.90;99.90
18141;DHT22;9196;49.194;12.526;2023-05-10T12:05:54;16.00;99.90
18141;DHT22;9196;49.194;12.526;2023-05-10T12:08:22;16.10;99.90
18141;DHT22;9196;49.194;12.526;2023-05-10T12:10:49;16.10;99.90
18141;DHT22;9196;49.194;12.526;2023-05-10T12:13:19;16.10;99.90
18141;DHT22;9196;49.194;12.526;2023-05-10T12:15:46;16.20;99.90
18141;DHT22;9196;49.194;12.526;2023-05-10T12:18:14;16.30;99.90
18141;DHT22;9196;49.194;12.526;2023-05-10T12:20:41;16.50;99.90
18141;DHT22;9196;49.194;12.526;2023-05-10T12:23:09;16.50;99.90
18141;DHT22;9196;49.194;12.526;2023-05-10T12:25:37;16.70;99.90
18141;DHT22;9196;49.194;12.526;2023-05-10T12:28:06;16.70;99.90
18141;DHT22;9196;49.194;12.526;2023-05-10T12:30:35;16.80;99.90
18141;DHT22;9196;49.194;12.526;2023-05-10T12:33:08;16.90;99.90
18141;DHT22;9196;49.194;12.526;2023-05-10T12:35:44;16.90;99.90
18141;DHT22;9196;49.194;12.526;2023-05-10T12:38:28;16.90;99.90
18141;DHT22;9196;49.194;12.526;2023-05-10T12:40:57;17.00;99.90
18141;DHT22;9196;49.194;12.526;2023-05-10T12:43:23;17.10;99.90
18141;DHT22;9196;49.194;12.526;2023-05-10T12:45:52;17.30;99.90
18141;DHT22;9196;49.194;12.526;2023-05-10T12:48:19;17.40;99.90
18141;DHT22;9196;49.194;12.526;2023-05-10T12:50:46;17.50;99.90
18141;DHT22;9196;49.194;12.526;2023-05-10T12:53:13;17.60;99.90
18141;DHT22;9196;49.194;12.526;2023-05-10T12:55:40;17.60;99.90
18141;DHT22;9196;49.194;12.526;2023-05-10T12:58:07;17.80;99.90
18141;DHT22;9196;49.194;12.526;2023-05-10T13:00:34;17.70;99.90
18141;DHT22;9196;49.194;12.526;2023-05-10T13:03:06;17.70;99.90
18141;DHT22;9196;49.194;12.526;2023-05-10T13:05:35;17.60;99.90
18141;DHT22;9196;49.194;12.526;2023-05-10T13:08:04;17.50;99.90
18141;DHT22;9196;49.194;12.526;2023-05-10T13:10:36;17.50;99.90
18141;DHT22;9196;49.194;12.526;2023-05-10T13:13:06;17.50;99.90
18141;DHT22;9196;49.194;12.526;2023-05-10T13:15:34;17.60;99.90
18141;DHT22;9196;49.194;12.526;2023-05-10T13:18:15;17.50;99.90
18141;DHT22;9196;49.194;12.526;2023-05-10T13:20:42;17.40;99.90
18141;DHT22;9196;49.194;12.526;2023-05-10T13:23:10;17.30;99.90
18141;DHT22;9196;49.194;12.526;2023-05-10T13:25:37;17.30;99.90
18141;DHT22;9196;49.194;12.526;2023-05-10T13:28:04;17.30;99.90
18141;DHT22;9196;49.194;12.526;2023-05-10T13:30:42;17.40;99.90
18141;DHT22;9196;49.194;12.526;2023-05-10T13:33:10;17.40;99.90
18141;DHT22;9196;49.194;12.526;2023-05-10T13:35:41;17.40;99.90
18141;DHT22;9196;49.194;12.526;2023-05-10T13:38:09;17.40;99.90
18141;DHT22;9196;49.194;12.526;2023-05-10T13:40:36;17.40;99.90
18141;DHT22;9196;49.194;12.526;2023-05-10T13:43:03;17.30;99.90
18141;DHT22;9196;49.194;12.526;2023-05-10T13:45:30;17.30;99.90
18141;DHT22;9196;49.194;12.526;2023-05-10T13:47:57;17.20;99.90
18141;DHT22;9196;49.194;12.526;2023-05-10T13:50:24;17.00;99.90
18141;DHT22;9196;49.194;12.526;2023-05-10T13:52:54;16.90;99.90
18141;DHT22;9196;49.194;12.526;2023-05-10T13:55:21;16.80;99.90
18141;DHT22;9196;49.194;12.526;2023-05-10T13:57:48;16.70;99.90
18141;DHT22;9196;49.194;12.526;2023-05-10T14:00:15;16.60;99.90
18141;DHT22;9196;49.194;12.526;2023-05-10T14:02:43;16.50;99.90
18141;DHT22;9196;49.194;12.526;2023-05-10T14:05:10;16.40;99.90
18141;DHT22;9196;49.194;12.526;2023-05-10T14:07:37;16.30;99.90
18141;DHT22;9196;49.194;12.526;2023-05-10T14:10:07;16.10;99.90
18141;DHT22;9196;49.194;12.526;2023-05-10T14:12:34;15.90;99.90
18141;DHT22;9196;49.194;12.526;2023-05-10T14:15:01;15.90;99.90
18141;DHT22;9196;49.194;12.526;2023-05-10T14:17:31;15.90;99.90
18141;DHT22;9196;49.194;12.526;2023-05-10T14:19:58;15.70;99.90
18141;DHT22;9196;49.194;12.526;2023-05-10T14:22:24;15.30;99.90
18141;DHT22;9196;49.194;12.526;2023-05-10T14:24:51;15.00;99.90
18141;DHT22;9196;49.194;12.526;2023-05-10T14:27:20;14.80;99.90
18141;DHT22;9196;49.194;12.526;2023-05-10T14:29:47;14.70;99.90
18141;DHT22;9196;49.194;12.526;2023-05-10T14:32:14;14.50;99.90
18141;DHT22;9196;49.194;12.526;2023-05-10T14:34:40;14.40;99.90
18141;DHT22;9196;49.194;12.526;2023-05-10T14:37:09;14.40;99.90
18141;DHT22;9196;49.194;12.526;2023-05-10T14:39:36;14.40;99.90
18141;DHT22;9196;49.194;12.526;2023-05-10T14:42:03;14.40;99.90
18141;DHT22;9196;49.194;12.526;2023-05-10T14:44:31;14.40;99.90
18141;DHT22;9196;49.194;12.526;2023-05-10T14:46:58;14.40;99.90
18141;DHT22;9196;49.194;12.526;2023-05-10T14:49:25;14.40;99.90
18141;DHT22;9196;49.194;12.526;2023-05-10T14:51:52;14.30;99.90
18141;DHT22;9196;49.194;12.526;2023-05-10T14:54:19;14.30;99.90
18141;DHT22;9196;49.194;12.526;2023-05-10T14:56:46;14.20;99.90
18141;DHT22;9196;49.194;12.526;2023-05-10T14:59:15;14.30;99.90
18141;DHT22;9196;49.194;12.526;2023-05-10T15:01:43;14.40;99.90
18141;DHT22;9196;49.194;12.526;2023-05-10T15:04:10;14.40;99.90
18141;DHT22;9196;49.194;12.526;2023-05-10T15:06:38;14.40;99.90
18141;DHT22;9196;49.194;12.526;2023-05-10T15:09:05;14.50;99.90
18141;DHT22;9196;49.194;12.526;2023-05-10T15:11:32;14.70;99.90
18141;DHT22;9196;49.194;12.526;2023-05-10T15:13:59;14.80;99.90
18141;DHT22;9196;49.194;12.526;2023-05-10T15:16:27;14.80;99.90
18141;DHT22;9196;49.194;12.526;2023-05-10T15:18:55;14.80;99.90
18141;DHT22;9196;49.194;12.526;2023-05-10T15:21:22;14.80;99.90
18141;DHT22;9196;49.194;12.526;2023-05-10T15:23:48;14.80;99.90
18141;DHT22;9196;49.194;12.526;2023-05-10T15:26:15;14.70;99.90
18141;DHT22;9196;49.194;12.526;2023-05-10T15:28:42;14.80;99.90
18141;DHT22;9196;49.194;12.526;2023-05-10T15:31:09;14.80;99.90
18141;DHT22;9196;49.194;12.526;2023-05-10T15:33:37;14.80;99.90
18141;DHT22;9196;49.194;12.526;2023-05-10T15:36:05;14.90;99.90
18141;DHT22;9196;49.194;12.526;2023-05-10T15:38:32;14.90;99.90
18141;DHT22;9196;49.194;12.526;2023-05-10T15:40:59;14.80;99.90
18141;DHT22;9196;49.194;12.526;2023-05-10T15:43:26;14.80;99.90
18141;DHT22;9196;49.194;12.526;2023-05-10T15:45:53;14.80;99.90